Time;durP1;ratioP1;P1;durP2;ratioP2;P2;SDS_P1;SDS_P2;PMS_P1;PMS_P2;Temp;Humidity;BMP_temperature;BMP_pressure;BME280_temperature;BME280_humidity;BME280_pressure;Samples;Min_cycle;Max_cycle;Signal;HPM_P1;HPM_P2
2023/07/20 00:00:53;;;;;;;10.90;7.70;;;;;;;21.51;100.00;-18605.09;5069776;28;20131;-76
2023/07/20 00:03:22;;;;;;;8.77;6.63;;;;;;;21.48;100.00;-18604.16;5079147;28;20028;-75
2023/07/20 00:05:49;;;;;;;11.88;8.27;;;;;;;21.54;100.00;-18605.91;5073997;28;20032;-76
2023/07/20 00:08:15;;;;;;;12.07;8.27;;;;;;;21.35;100.00;-18600.88;5076706;28;20060;-76
2023/07/20 00:10:41;;;;;;;10.35;7.05;;;;;;;21.37;100.00;-18601.41;5085273;28;20048;-76
2023/07/20 00:13:07;;;;;;;12.07;7.75;;;;;;;21.37;100.00;-18601.41;5072283;28;20044;-76
2023/07/20 00:15:32;;;;;;;10.23;7.13;;;;;;;21.33;100.00;-18600.34;5066181;28;20113;-76
2023/07/20 00:17:57;;;;;;;15.40;7.97;;;;;;;21.37;100.00;-18601.41;5080577;28;20048;-76
2023/07/20 00:20:25;;;;;;;11.98;7.38;;;;;;;21.44;100.00;-18603.19;5081015;28;20048;-76
2023/07/20 00:22:51;;;;;;;10.38;7.53;;;;;;;21.31;100.00;-18599.78;5081681;28;20035;-75
2023/07/20 00:25:16;;;;;;;10.70;6.95;;;;;;;21.33;100.00;-18600.19;5078799;28;20044;-75
2023/07/20 00:27:42;;;;;;;9.88;7.72;;;;;;;21.38;100.00;-18601.69;5077750;28;20098;-76
2023/07/20 00:30:08;;;;;;;12.90;8.38;;;;;;;21.50;100.00;-18604.69;5079266;28;20608;-75
2023/07/20 00:32:33;;;;;;;11.75;8.48;;;;;;;21.54;100.00;-18605.78;5078575;28;20396;-76
2023/07/20 00:34:58;;;;;;;9.65;8.13;;;;;;;21.55;100.00;-18606.03;5066916;28;20564;-75
2023/07/20 00:37:24;;;;;;;11.02;8.20;;;;;;;21.34;100.00;-18600.47;5078136;28;20040;-76
2023/07/20 00:39:49;;;;;;;11.57;7.88;;;;;;;21.24;100.00;-18597.88;5082858;28;20040;-76
2023/07/20 00:42:14;;;;;;;11.10;8.40;;;;;;;21.33;100.00;-18600.34;5082153;28;20064;-75
2023/07/20 00:44:40;;;;;;;12.43;8.18;;;;;;;21.34;100.00;-18600.59;5063875;28;20080;-76
2023/07/20 00:47:06;;;;;;;13.85;7.68;;;;;;;21.30;100.00;-18599.38;5079363;28;20044;-76
2023/07/20 00:49:31;;;;;;;10.05;8.38;;;;;;;21.34;100.00;-18600.59;5081063;28;20044;-75
2023/07/20 00:51:59;;;;;;;12.55;9.55;;;;;;;21.50;100.00;-18604.69;5074670;28;20044;-75
2023/07/20 00:54:25;;;;;;;10.82;8.40;;;;;;;21.44;100.00;-18603.19;5076041;28;20435;-75
2023/07/20 00:56:53;;;;;;;14.48;9.30;;;;;;;21.37;100.00;-18601.28;5074064;28;20040;-76
2023/07/20 00:59:18;;;;;;;11.07;9.63;;;;;;;21.31;100.00;-18599.78;5078047;28;20072;-76
2023/07/20 01:01:44;;;;;;;13.15;9.75;;;;;;;21.19;100.00;-18596.53;5080136;28;20472;-75
2023/07/20 01:04:10;;;;;;;9.07;8.15;;;;;;;21.09;100.00;-18593.81;5082498;28;20553;-75
2023/07/20 01:06:38;;;;;;;11.75;8.50;;;;;;;20.95;100.00;-18590.13;5072608;28;20040;-75
2023/07/20 01:09:24;;;;;;;9.50;8.10;;;;;;;20.79;100.00;-18585.91;5078872;28;20040;-75
2023/07/20 01:12:08;;;;;;;10.60;8.93;;;;;;;20.71;100.00;-18583.75;5076918;28;20074;-75
2023/07/20 01:14:34;;;;;;;11.60;9.55;;;;;;;20.79;100.00;-18585.78;5076586;28;20048;-75
2023/07/20 01:17:00;;;;;;;10.55;8.63;;;;;;;20.71;100.00;-18583.75;5082939;28;20447;-75
2023/07/20 01:19:25;;;;;;;12.27;9.18;;;;;;;20.53;100.00;-18578.84;5075193;28;20063;-75
2023/07/20 01:21:58;;;;;;;10.77;7.90;;;;;;;20.40;100.00;-18575.44;5076111;28;20439;-75
2023/07/20 01:24:27;;;;;;;11.90;8.93;;;;;;;20.51;100.00;-18578.44;5076450;28;20115;-76
2023/07/20 01:26:55;;;;;;;11.67;9.20;;;;;;;20.60;100.00;-18580.75;5078543;28;20469;-76
2023/07/20 01:29:27;;;;;;;14.82;10.20;;;;;;;20.56;100.00;-18579.66;5081393;28;20658;-77
2023/07/20 01:31:55;;;;;;;9.90;7.75;;;;;;;20.33;100.00;-18573.66;5059184;28;21297;-76
2023/07/20 01:34:23;;;;;;;10.75;7.65;;;;;;;20.43;100.00;-18576.25;5081699;28;20584;-76
2023/07/20 01:36:50;;;;;;;11.33;7.93;;;;;;;20.60;100.00;-18580.75;5082608;28;20400;-76
2023/07/20 01:39:16;;;;;;;10.55;7.43;;;;;;;20.56;100.00;-18579.66;5076428;28;20352;-75
2023/07/20 01:41:42;;;;;;;10.90;8.02;;;;;;;20.47;100.00;-18577.34;5075320;28;20063;-76
2023/07/20 01:44:08;;;;;;;9.30;7.00;;;;;;;20.36;100.00;-18574.34;5079784;28;20039;-76
2023/07/20 01:46:33;;;;;;;10.93;7.65;;;;;;;20.40;100.00;-18575.56;5081629;28;20047;-76
2023/07/20 01:48:59;;;;;;;11.15;8.27;;;;;;;20.55;100.00;-18579.53;5076913;28;20509;-76
2023/07/20 01:51:24;;;;;;;10.10;7.50;;;;;;;20.41;100.00;-18575.84;5075298;28;20448;-75
2023/07/20 01:53:49;;;;;;;11.27;8.02;;;;;;;20.56;100.00;-18579.66;5078039;28;20116;-76
2023/07/20 01:56:15;;;;;;;10.48;8.00;;;;;;;20.38;100.00;-18574.91;5080226;28;20122;-75
2023/07/20 01:58:40;;;;;;;10.90;8.15;;;;;;;20.22;100.00;-18570.81;5078409;28;20055;-76
2023/07/20 02:01:06;;;;;;;10.35;8.02;;;;;;;20.43;100.00;-18576.41;5080603;28;20445;-76
2023/07/20 02:03:32;;;;;;;12.63;8.95;;;;;;;20.38;100.00;-18575.03;5078244;28;20052;-76
2023/07/20 02:05:57;;;;;;;12.10;8.98;;;;;;;20.30;100.00;-18572.84;5077925;28;20056;-76
2023/07/20 02:08:23;;;;;;;12.43;9.25;;;;;;;20.33;100.00;-18573.66;5077064;28;21001;-76
2023/07/20 02:10:49;;;;;;;12.48;9.45;;;;;;;20.28;100.00;-18572.44;5074955;28;20499;-76
2023/07/20 02:13:15;;;;;;;13.57;10.05;;;;;;;20.43;100.00;-18576.41;5072713;28;20041;-76
2023/07/20 02:15:41;;;;;;;13.25;9.80;;;;;;;20.28;100.00;-18572.31;5080632;28;20131;-76
2023/07/20 02:18:07;;;;;;;16.48;10.40;;;;;;;20.50;100.00;-18578.28;5078620;28;20036;-76
2023/07/20 02:20:32;;;;;;;13.63;10.77;;;;;;;20.41;100.00;-18575.84;5076316;28;20047;-76
2023/07/20 02:22:57;;;;;;;13.77;10.65;;;;;;;20.42;100.00;-18576.13;5078348;28;20128;-77
2023/07/20 02:25:23;;;;;;;14.20;10.25;;;;;;;20.40;100.00;-18575.44;5075929;28;20048;-76
2023/07/20 02:27:48;;;;;;;16.05;10.82;;;;;;;20.36;100.00;-18574.34;5070755;28;20055;-76
2023/07/20 02:30:13;;;;;;;12.93;10.25;;;;;;;20.42;100.00;-18576.13;5080217;28;20044;-76
2023/07/20 02:32:39;;;;;;;13.63;10.75;;;;;;;20.21;100.00;-18570.41;5063597;28;20098;-76
2023/07/20 02:35:06;;;;;;;16.23;11.68;;;;;;;20.16;100.00;-18569.03;5074651;28;20036;-76
2023/07/20 02:37:31;;;;;;;15.52;11.30;;;;;;;20.14;100.00;-18568.50;5072742;28;20040;-76
2023/07/20 02:39:57;;;;;;;14.45;11.00;;;;;;;20.10;100.00;-18567.41;5077738;28;20380;-75
2023/07/20 02:42:23;;;;;;;16.58;11.32;;;;;;;20.06;100.00;-18566.47;5072654;28;20098;-76
2023/07/20 02:44:49;;;;;;;16.08;12.27;;;;;;;19.94;100.00;-18563.19;5075808;28;20101;-76
2023/07/20 02:47:14;;;;;;;14.60;10.38;;;;;;;20.03;100.00;-18565.63;5072835;28;20187;-76
2023/07/20 02:49:40;;;;;;;14.80;10.55;;;;;;;19.93;100.00;-18563.06;5076843;28;21560;-75
2023/07/20 02:52:05;;;;;;;12.50;9.65;;;;;;;19.96;100.00;-18563.88;5081503;28;20041;-76
2023/07/20 02:54:31;;;;;;;13.48;10.00;;;;;;;20.00;100.00;-18564.81;5082147;28;20127;-74
2023/07/20 02:56:56;;;;;;;13.32;9.70;;;;;;;20.03;100.00;-18565.78;5077876;28;20407;-77
2023/07/20 02:59:22;;;;;;;12.55;9.68;;;;;;;19.98;100.00;-18564.41;5081681;28;20047;-77
2023/07/20 03:01:47;;;;;;;11.95;9.85;;;;;;;19.88;100.00;-18561.56;5079387;28;20488;-74
2023/07/20 03:04:13;;;;;;;10.25;8.68;;;;;;;19.78;100.00;-18558.97;5081566;28;20052;-76
2023/07/20 03:06:38;;;;;;;11.07;9.00;;;;;;;19.98;100.00;-18564.28;5077949;28;20040;-76
2023/07/20 03:09:03;;;;;;;10.77;8.73;;;;;;;19.94;100.00;-18563.31;5081733;28;20042;-75
2023/07/20 03:11:29;;;;;;;10.05;7.53;;;;;;;19.98;100.00;-18564.28;5082234;28;20202;-76
2023/07/20 03:13:54;;;;;;;10.00;8.23;;;;;;;19.86;100.00;-18561.16;5077615;28;20060;-77
2023/07/20 03:16:20;;;;;;;11.15;8.52;;;;;;;20.00;100.00;-18564.81;5067953;28;20051;-76
2023/07/20 03:18:46;;;;;;;11.90;8.52;;;;;;;20.02;100.00;-18565.38;5046008;28;20052;-76
2023/07/20 03:21:12;;;;;;;10.18;7.53;;;;;;;19.95;100.00;-18563.47;5054027;28;20063;-77
2023/07/20 03:23:38;;;;;;;11.63;8.70;;;;;;;19.90;100.00;-18562.09;5049588;28;20056;-77
2023/07/20 03:26:03;;;;;;;9.85;7.70;;;;;;;19.74;100.00;-18557.88;5056267;28;20102;-76
2023/07/20 03:28:28;;;;;;;9.23;7.45;;;;;;;19.77;100.00;-18558.69;5051676;28;20033;-77
2023/07/20 03:30:55;;;;;;;10.23;7.53;;;;;;;19.82;100.00;-18560.06;5053748;28;20128;-76
2023/07/20 03:33:22;;;;;;;11.73;7.50;;;;;;;19.79;100.00;-18559.25;5045917;28;20551;-76
2023/07/20 03:35:48;;;;;;;10.45;7.63;;;;;;;19.69;100.00;-18556.53;5064018;28;20048;-77
2023/07/20 03:38:13;;;;;;;10.00;7.43;;;;;;;19.68;100.00;-18556.25;5061552;28;20051;-76
2023/07/20 03:40:38;;;;;;;10.32;8.05;;;;;;;19.60;100.00;-18554.34;5063207;28;20068;-76
2023/07/20 03:43:04;;;;;;;10.85;8.20;;;;;;;19.63;100.00;-18554.88;5059525;28;20128;-76
2023/07/20 03:45:29;;;;;;;10.68;7.40;;;;;;;19.71;100.00;-18557.19;5056511;28;21043;-77
2023/07/20 03:47:54;;;;;;;10.98;7.88;;;;;;;19.68;100.00;-18556.25;5055928;28;20136;-77
2023/07/20 03:50:20;;;;;;;10.13;7.97;;;;;;;19.68;100.00;-18556.38;5081582;28;20461;-76
2023/07/20 03:52:45;;;;;;;10.02;7.70;;;;;;;19.55;100.00;-18552.97;5081225;28;20820;-76
2023/07/20 03:55:10;;;;;;;9.98;7.97;;;;;;;19.58;100.00;-18553.78;5079560;28;20043;-76
2023/07/20 03:57:36;;;;;;;11.35;8.38;;;;;;;19.55;100.00;-18552.84;5085079;28;20105;-76
2023/07/20 04:00:01;;;;;;;11.05;8.75;;;;;;;19.47;100.00;-18550.66;5080589;28;20518;-76
2023/07/20 04:02:27;;;;;;;12.00;9.05;;;;;;;19.58;100.00;-18553.66;5076401;28;20041;-76
2023/07/20 04:04:52;;;;;;;10.25;7.88;;;;;;;19.54;100.00;-18552.69;5080487;28;20037;-76
2023/07/20 04:07:17;;;;;;;10.23;7.85;;;;;;;19.42;100.00;-18549.44;5083321;28;20040;-76
2023/07/20 04:09:43;;;;;;;11.15;8.73;;;;;;;19.44;100.00;-18549.84;5065266;28;20040;-76
2023/07/20 04:12:08;;;;;;;11.07;8.85;;;;;;;19.41;100.00;-18549.16;5074511;28;20051;-76
2023/07/20 04:14:33;;;;;;;10.70;8.65;;;;;;;19.49;100.00;-18551.34;5077043;28;20036;-77
2023/07/20 04:17:00;;;;;;;11.38;9.40;;;;;;;19.60;100.00;-18554.34;5075048;28;20132;-76
2023/07/20 04:19:25;;;;;;;16.67;9.55;;;;;;;19.46;100.00;-18550.53;5076519;28;20072;-76
2023/07/20 04:21:51;;;;;;;11.90;9.57;;;;;;;19.65;100.00;-18555.41;5078411;28;20447;-76
2023/07/20 04:24:16;;;;;;;11.60;9.57;;;;;;;19.65;100.00;-18555.56;5083280;28;20044;-76
2023/07/20 04:26:42;;;;;;;15.00;9.82;;;;;;;19.53;100.00;-18552.44;5081231;28;20052;-76
2023/07/20 04:29:07;;;;;;;13.32;9.05;;;;;;;19.49;100.00;-18551.34;5078315;28;20127;-76
2023/07/20 04:31:33;;;;;;;12.98;9.52;;;;;;;19.49;100.00;-18551.19;5077150;28;20412;-76
2023/07/20 04:33:58;;;;;;;12.20;9.25;;;;;;;19.54;100.00;-18552.69;5079636;28;20040;-76
2023/07/20 04:36:23;;;;;;;14.95;10.07;;;;;;;19.41;100.00;-18549.03;5066246;28;20051;-77
2023/07/20 04:38:49;;;;;;;11.85;9.73;;;;;;;19.49;100.00;-18551.34;5083104;28;20126;-76
2023/07/20 04:41:14;;;;;;;12.90;10.27;;;;;;;19.46;100.00;-18550.53;5077124;28;20048;-76
2023/07/20 04:43:43;;;;;;;12.98;9.93;;;;;;;19.37;100.00;-18548.19;5080775;28;20036;-76
2023/07/20 04:46:09;;;;;;;;;;;;;;;19.31;100.00;-18546.56;5079088;28;20530;-76
2023/07/20 04:48:35;;;;;;;12.52;10.30;;;;;;;19.22;100.00;-18543.97;5076089;28;19920;-76
2023/07/20 04:51:00;;;;;;;13.23;9.15;;;;;;;19.23;100.00;-18544.25;5079405;28;22908;-76
2023/07/20 04:53:25;;;;;;;11.68;9.05;;;;;;;19.15;100.00;-18542.34;5074808;28;20028;-76
2023/07/20 04:55:51;;;;;;;13.23;9.65;;;;;;;19.34;100.00;-18547.25;5072752;28;20060;-76
2023/07/20 04:58:18;;;;;;;14.50;10.05;;;;;;;19.36;100.00;-18547.78;5075584;28;20101;-76
2023/07/20 05:00:44;;;;;;;15.32;10.73;;;;;;;19.60;100.00;-18554.34;5081666;28;20154;-76
2023/07/20 05:03:09;;;;;;;11.85;9.57;;;;;;;19.71;100.00;-18557.19;5079005;28;20052;-76
2023/07/20 05:05:34;;;;;;;13.52;10.13;;;;;;;19.61;100.00;-18554.59;5078627;28;20668;-76
2023/07/20 05:08:00;;;;;;;11.00;9.68;;;;;;;19.57;100.00;-18553.50;5078430;28;20036;-75
2023/07/20 05:10:25;;;;;;;11.07;9.30;;;;;;;19.59;100.00;-18554.06;5079722;28;20448;-77
2023/07/20 05:12:51;;;;;;;10.65;9.35;;;;;;;19.65;100.00;-18555.41;5078992;28;20032;-76
2023/07/20 05:15:16;;;;;;;13.57;9.50;;;;;;;19.52;100.00;-18552.03;5078629;28;20056;-76
2023/07/20 05:17:42;;;;;;;12.07;8.95;;;;;;;19.46;100.00;-18550.38;5079321;28;20043;-77
2023/07/20 05:20:10;;;;;;;10.57;8.52;;;;;;;19.29;100.00;-18546.03;5078998;28;20054;-75
2023/07/20 05:22:39;;;;;;;11.15;8.43;;;;;;;19.26;100.00;-18545.22;5074118;28;20047;-75
2023/07/20 05:25:08;;;;;;;10.73;7.93;;;;;;;19.46;100.00;-18550.38;5078690;28;20540;-75
2023/07/20 05:27:35;;;;;;;10.05;8.02;;;;;;;19.45;100.00;-18550.25;5080514;28;20052;-75
2023/07/20 05:30:01;;;;;;;10.50;8.68;;;;;;;19.48;100.00;-18551.06;5076144;28;20039;-75
2023/07/20 05:32:27;;;;;;;10.38;7.90;;;;;;;19.39;100.00;-18548.75;5075055;28;20048;-75
2023/07/20 05:34:54;;;;;;;10.38;8.00;;;;;;;19.43;100.00;-18549.69;5072893;28;20079;-76
2023/07/20 05:37:19;;;;;;;10.65;8.00;;;;;;;19.51;100.00;-18551.88;5060832;28;20090;-76
2023/07/20 05:39:44;;;;;;;9.23;7.35;;;;;;;19.68;100.00;-18556.25;5078268;28;20036;-76
2023/07/20 05:42:10;;;;;;;9.95;7.53;;;;;;;19.79;100.00;-18559.38;5079096;28;20122;-76
2023/07/20 05:44:35;;;;;;;11.10;7.10;;;;;;;19.71;100.00;-18557.06;5074456;28;20038;-76
2023/07/20 05:47:02;;;;;;;9.55;7.28;;;;;;;19.76;100.00;-18558.41;5082740;28;20503;-76
2023/07/20 05:49:27;;;;;;;9.27;7.47;;;;;;;19.90;100.00;-18562.22;5070677;28;20063;-75
2023/07/20 05:51:53;;;;;;;9.55;7.03;;;;;;;19.85;100.00;-18560.88;5077719;28;20047;-76
2023/07/20 05:54:19;;;;;;;8.50;6.88;;;;;;;20.18;100.00;-18569.59;5074780;28;20411;-76
2023/07/20 05:56:45;;;;;;;8.52;7.00;;;;;;;20.16;100.00;-18569.19;5062187;28;20048;-75
2023/07/20 05:59:11;;;;;;;9.60;6.63;;;;;;;20.26;100.00;-18571.75;5068730;28;20033;-77
2023/07/20 06:01:36;;;;;;;7.30;5.85;;;;;;;20.29;100.00;-18572.59;5081185;28;20058;-75
2023/07/20 06:04:03;;;;;;;7.88;6.28;;;;;;;20.33;100.00;-18573.66;5081198;28;20039;-75
2023/07/20 06:06:28;;;;;;;8.68;6.60;;;;;;;20.34;100.00;-18573.81;5076209;28;20063;-75
2023/07/20 06:08:54;;;;;;;8.10;5.80;;;;;;;20.39;100.00;-18575.31;5077203;28;20540;-75
2023/07/20 06:11:20;;;;;;;8.40;6.03;;;;;;;20.31;100.00;-18573.13;5071523;28;20052;-77
2023/07/20 06:13:45;;;;;;;6.72;5.47;;;;;;;20.45;100.00;-18576.94;5081801;28;20131;-76
2023/07/20 06:16:10;;;;;;;6.75;5.40;;;;;;;20.58;100.00;-18580.22;5076925;28;20437;-75
2023/07/20 06:18:36;;;;;;;6.35;5.38;;;;;;;20.78;100.00;-18585.66;5063694;28;20051;-76
2023/07/20 06:21:01;;;;;;;6.72;5.28;;;;;;;20.75;100.00;-18584.69;5064589;28;20044;-75
2023/07/20 06:23:27;;;;;;;6.80;4.78;;;;;;;20.90;100.00;-18588.78;5077765;28;20062;-77
2023/07/20 06:25:52;;;;;;;6.50;4.90;;;;;;;20.83;100.00;-18586.88;5058192;28;20045;-76
2023/07/20 06:28:18;;;;;;;7.45;4.22;;;;;;;20.61;100.00;-18581.03;5071568;28;20408;-76
2023/07/20 06:30:43;;;;;;;7.47;4.93;;;;;;;20.83;100.00;-18586.88;5078313;28;20047;-78
2023/07/20 06:33:09;;;;;;;7.13;5.15;;;;;;;20.81;100.00;-18586.47;5075378;28;20071;-76
2023/07/20 06:35:35;;;;;;;5.78;4.63;;;;;;;20.90;100.00;-18588.91;5077167;28;20459;-76
2023/07/20 06:38:03;;;;;;;6.65;4.07;;;;;;;20.96;100.00;-18590.41;5079001;28;20036;-76
2023/07/20 06:40:30;;;;;;;4.33;3.20;;;;;;;21.08;100.00;-18593.66;5083181;28;20051;-76
2023/07/20 06:42:55;;;;;;;6.07;3.95;;;;;;;21.06;100.00;-18593.00;5071132;28;20486;-77
2023/07/20 06:45:21;;;;;;;5.55;3.83;;;;;;;21.16;100.00;-18595.72;5080087;28;20040;-75
2023/07/20 06:47:46;;;;;;;4.88;3.40;;;;;;;21.27;100.00;-18598.56;5077459;28;20060;-77
2023/07/20 06:50:12;;;;;;;4.10;3.22;;;;;;;21.17;100.00;-18596.13;5061205;28;20086;-77
2023/07/20 06:52:39;;;;;;;4.20;3.20;;;;;;;20.99;100.00;-18591.09;5083257;28;20090;-76
2023/07/20 06:55:06;;;;;;;4.20;3.50;;;;;;;21.02;100.00;-18591.91;5075631;28;20111;-75
2023/07/20 06:57:31;;;;;;;4.55;3.42;;;;;;;20.98;100.00;-18590.81;5053530;28;20548;-75
2023/07/20 06:59:57;;;;;;;4.22;3.13;;;;;;;20.92;100.00;-18589.31;5086408;28;20123;-77
2023/07/20 07:02:22;;;;;;;4.28;3.03;;;;;;;21.14;100.00;-18595.16;5070016;28;20109;-77
2023/07/20 07:04:47;;;;;;;3.80;2.90;;;;;;;21.25;99.46;-18598.16;5083773;28;20048;-78
2023/07/20 07:07:16;;;;;;;5.55;3.08;;;;;;;21.32;100.00;-18600.06;5080761;28;20089;-76
2023/07/20 07:09:42;;;;;;;4.07;2.80;;;;;;;21.52;98.26;-18605.22;5073641;28;20041;-75
2023/07/20 07:12:08;;;;;;;4.43;2.88;;;;;;;21.60;99.59;-18607.41;5077891;28;20048;-76
2023/07/20 07:14:34;;;;;;;4.63;3.13;;;;;;;21.68;98.51;-18609.44;5082597;28;20037;-77
2023/07/20 07:16:59;;;;;;;4.50;3.03;;;;;;;21.71;95.50;-18610.41;5082774;28;20174;-76
2023/07/20 07:19:25;;;;;;;3.78;2.50;;;;;;;21.54;95.67;-18605.78;5084105;28;20065;-75
2023/07/20 07:21:50;;;;;;;3.38;2.45;;;;;;;21.68;97.57;-18609.56;5063186;28;20033;-75
2023/07/20 07:24:16;;;;;;;3.47;2.65;;;;;;;21.86;97.29;-18614.47;5076368;28;20045;-76
2023/07/20 07:26:41;;;;;;;3.20;2.05;;;;;;;21.70;95.86;-18610.00;5071205;28;20032;-76
2023/07/20 07:29:07;;;;;;;2.97;2.25;;;;;;;21.75;95.21;-18611.34;5080110;28;20055;-76
2023/07/20 07:31:35;;;;;;;3.40;2.05;;;;;;;21.68;92.41;-18609.56;5063682;28;20044;-76
2023/07/20 07:34:00;;;;;;;3.08;2.15;;;;;;;21.52;91.28;-18605.22;5062700;28;20041;-76
2023/07/20 07:36:26;;;;;;;3.80;2.55;;;;;;;21.34;93.48;-18600.47;5062700;28;20587;-76
2023/07/20 07:38:51;;;;;;;4.35;2.10;;;;;;;21.46;94.09;-18603.59;5078480;28;20095;-77
2023/07/20 07:41:16;;;;;;;3.58;2.10;;;;;;;21.35;93.77;-18600.75;5082217;28;20047;-76
2023/07/20 07:43:42;;;;;;;2.90;2.20;;;;;;;21.46;92.53;-18603.59;5081996;28;20040;-76
2023/07/20 07:46:07;;;;;;;3.30;1.60;;;;;;;21.45;93.98;-18603.31;5075484;28;20067;-76
2023/07/20 07:48:33;;;;;;;2.83;2.00;;;;;;;21.22;95.58;-18597.22;5077654;28;20100;-76
2023/07/20 07:50:58;;;;;;;4.20;2.30;;;;;;;21.48;95.63;-18604.16;5073524;28;20028;-77
2023/07/20 07:53:25;;;;;;;3.20;1.80;;;;;;;21.35;90.97;-18600.75;5076064;28;20040;-74
2023/07/20 07:55:51;;;;;;;3.15;1.42;;;;;;;21.60;87.32;-18607.41;5076521;28;20539;-77
2023/07/20 07:58:16;;;;;;;1.92;1.05;;;;;;;21.73;84.85;-18610.94;5082700;28;20048;-77
2023/07/20 08:00:43;;;;;;;1.73;1.30;;;;;;;21.52;81.78;-18605.22;5068576;28;20815;-76
2023/07/20 08:03:08;;;;;;;2.53;1.67;;;;;;;21.88;83.37;-18614.88;5079456;28;20373;-77
2023/07/20 08:05:34;;;;;;;2.45;1.75;;;;;;;21.95;79.54;-18616.78;5082854;28;20040;-76
2023/07/20 08:08:01;;;;;;;2.67;1.70;;;;;;;22.16;81.54;-18622.34;5077326;28;20048;-76
2023/07/20 08:10:26;;;;;;;2.85;1.83;;;;;;;22.24;81.29;-18624.53;5076319;28;20052;-76
2023/07/20 08:12:52;;;;;;;2.92;1.35;;;;;;;22.46;78.63;-18630.22;5075026;28;20039;-76
2023/07/20 08:15:17;;;;;;;2.33;1.25;;;;;;;22.60;76.25;-18633.91;5071930;28;20055;-76
2023/07/20 08:17:44;;;;;;;3.13;1.30;;;;;;;22.68;75.93;-18636.19;5074846;28;20040;-76
2023/07/20 08:20:12;;;;;;;2.83;1.42;;;;;;;22.68;75.98;-18636.19;5074015;28;20442;-76
2023/07/20 08:22:38;;;;;;;1.80;1.10;;;;;;;22.87;74.73;-18641.22;5078033;28;20084;-77
2023/07/20 08:25:04;;;;;;;2.70;1.30;;;;;;;22.73;71.32;-18637.44;5079159;28;20067;-76
2023/07/20 08:27:29;;;;;;;3.83;1.00;;;;;;;22.92;73.11;-18642.59;5078021;28;20060;-76
2023/07/20 08:29:54;;;;;;;1.25;0.88;;;;;;;22.89;73.03;-18641.63;5074399;28;20053;-76
2023/07/20 08:32:20;;;;;;;2.00;1.00;;;;;;;22.77;66.53;-18638.50;5078920;28;20514;-76
2023/07/20 08:34:45;;;;;;;2.03;1.17;;;;;;;22.89;68.70;-18641.63;5080587;28;20573;-76
2023/07/20 08:37:10;;;;;;;2.53;1.25;;;;;;;22.84;69.28;-18640.41;5081538;28;20055;-76
2023/07/20 08:39:36;;;;;;;1.90;1.10;;;;;;;22.92;69.49;-18642.44;5071227;28;20044;-76
2023/07/20 08:42:04;;;;;;;2.70;1.15;;;;;;;22.87;67.76;-18641.09;5065800;28;20032;-76
2023/07/20 08:44:35;;;;;;;3.13;1.25;;;;;;;23.03;66.10;-18645.31;5077897;28;20089;-76
2023/07/20 08:47:05;;;;;;;1.35;1.00;;;;;;;22.79;62.83;-18638.91;5079715;28;20395;-76
2023/07/20 08:49:35;;;;;;;2.67;1.05;;;;;;;22.95;63.45;-18643.25;5059217;28;20047;-76
2023/07/20 08:52:01;;;;;;;0.98;0.70;;;;;;;23.01;59.10;-18644.75;5076942;28;20028;-76
2023/07/20 08:54:32;;;;;;;2.63;0.70;;;;;;;22.72;60.01;-18637.28;5077149;28;20048;-76
2023/07/20 08:57:01;;;;;;;2.10;0.88;;;;;;;22.92;60.00;-18642.44;5077525;28;20035;-76
2023/07/20 08:59:28;;;;;;;2.15;0.90;;;;;;;23.08;61.50;-18646.78;5078833;28;20090;-76
2023/07/20 09:01:56;;;;;;;1.25;0.80;;;;;;;23.34;62.17;-18653.72;5073151;28;20040;-78
2023/07/20 09:04:22;;;;;;;1.85;0.80;;;;;;;23.63;60.29;-18661.44;5089601;28;20048;-76
2023/07/20 09:06:49;;;;;;;1.45;0.73;;;;;;;23.63;58.90;-18661.44;5077943;28;20032;-78
2023/07/20 09:09:14;;;;;;;1.88;0.80;;;;;;;23.68;57.26;-18662.53;5086992;28;20036;-78
2023/07/20 09:11:40;;;;;;;1.52;0.80;;;;;;;23.29;57.92;-18652.22;5084866;28;21755;-75
2023/07/20 09:14:07;;;;;;;1.10;0.70;;;;;;;23.22;56.67;-18650.31;5083765;28;20047;-76
2023/07/20 09:16:46;;;;;;;1.85;0.80;;;;;;;23.27;57.58;-18651.69;5080735;28;20048;-76
2023/07/20 09:19:12;;;;;;;1.85;0.90;;;;;;;23.28;58.15;-18652.09;5077845;28;20530;-76
2023/07/20 09:21:38;;;;;;;2.50;1.10;;;;;;;23.23;57.58;-18650.72;5079498;28;20040;-77
2023/07/20 09:24:03;;;;;;;1.77;0.70;;;;;;;23.16;56.57;-18648.97;5082715;28;20107;-77
2023/07/20 09:26:28;;;;;;;4.00;0.70;;;;;;;23.30;54.93;-18652.50;5075945;28;20047;-77
2023/07/20 09:28:55;;;;;;;2.75;1.38;;;;;;;23.38;59.16;-18654.78;5065146;28;20028;-75
2023/07/20 09:31:22;;;;;;;1.15;0.70;;;;;;;23.68;54.91;-18662.66;5064336;28;20432;-76
2023/07/20 09:33:49;;;;;;;1.30;0.85;;;;;;;23.61;56.13;-18660.91;5084438;28;20044;-76
2023/07/20 09:36:14;;;;;;;2.00;1.02;;;;;;;23.76;59.49;-18664.84;5083537;28;20051;-76
2023/07/20 09:38:42;;;;;;;3.22;0.80;;;;;;;23.73;54.04;-18663.88;5082340;28;20036;-77
2023/07/20 09:41:08;;;;;;;1.70;0.82;;;;;;;23.99;52.89;-18670.94;5074253;28;20053;-77
2023/07/20 09:43:36;;;;;;;1.38;0.75;;;;;;;24.20;50.82;-18676.34;5080195;28;20036;-77
2023/07/20 09:46:02;;;;;;;1.30;0.70;;;;;;;24.41;50.47;-18681.91;5082659;28;20499;-77
2023/07/20 09:48:27;;;;;;;1.63;0.70;;;;;;;24.26;50.06;-18677.97;5078635;28;20059;-77
2023/07/20 09:50:53;;;;;;;2.10;0.70;;;;;;;24.12;51.12;-18674.31;5063274;28;20036;-76
2023/07/20 09:53:20;;;;;;;1.25;0.82;;;;;;;24.23;50.43;-18677.16;5079789;28;20060;-77
2023/07/20 09:55:48;;;;;;;1.30;0.70;;;;;;;24.13;51.45;-18674.59;5075864;28;20040;-77
2023/07/20 09:58:15;;;;;;;1.75;0.70;;;;;;;24.14;52.34;-18674.72;5079231;28;20048;-77
2023/07/20 10:00:46;;;;;;;3.00;0.70;;;;;;;24.15;52.81;-18675.00;5087162;28;20044;-77
2023/07/20 10:03:16;;;;;;;1.45;0.80;;;;;;;24.06;50.92;-18672.69;5089761;28;20055;-76
2023/07/20 10:05:46;;;;;;;1.65;0.80;;;;;;;24.26;52.57;-18678.13;5073338;28;20645;-76
2023/07/20 10:08:14;;;;;;;0.80;0.60;;;;;;;24.46;52.96;-18683.28;5092235;28;20040;-75
2023/07/20 10:10:42;;;;;;;1.10;0.50;;;;;;;24.58;49.77;-18686.38;5077451;28;20036;-76
2023/07/20 10:13:13;;;;;;;1.13;0.68;;;;;;;24.41;47.51;-18682.03;5066013;28;20476;-77
2023/07/20 10:15:51;;;;;;;1.35;0.60;;;;;;;24.28;49.15;-18678.53;5062846;28;20037;-77
2023/07/20 10:18:35;;;;;;;1.90;0.70;;;;;;;24.37;47.25;-18680.97;5051995;28;20033;-77
2023/07/20 10:21:01;;;;;;;1.15;0.50;;;;;;;24.58;48.16;-18686.53;5075289;28;20542;-77
2023/07/20 10:23:29;;;;;;;1.10;0.50;;;;;;;24.56;47.73;-18685.97;5082129;28;20047;-77
2023/07/20 10:25:55;;;;;;;0.95;0.50;;;;;;;24.86;47.81;-18693.97;5078099;28;20396;-77
2023/07/20 10:28:23;;;;;;;1.13;0.57;;;;;;;24.51;44.97;-18684.63;5063722;28;20040;-77
2023/07/20 10:30:49;;;;;;;1.40;0.60;;;;;;;24.75;45.79;-18691.00;5077750;28;20056;-75
2023/07/20 10:33:16;;;;;;;1.55;0.63;;;;;;;24.70;43.89;-18689.78;5080686;28;20048;-77
2023/07/20 10:36:01;;;;;;;1.55;0.50;;;;;;;24.98;46.09;-18697.09;5075779;28;20115;-76
2023/07/20 10:38:54;;;;;;;1.67;0.60;;;;;;;25.04;44.75;-18698.56;5070520;28;20086;-76
2023/07/20 10:41:29;;;;;;;1.60;0.57;;;;;;;25.07;47.15;-18699.38;5050032;28;20061;-76
2023/07/20 10:44:01;;;;;;;1.85;0.70;;;;;;;25.18;45.39;-18702.50;5073372;28;20089;-76
2023/07/20 10:46:39;;;;;;;1.98;0.60;;;;;;;25.10;45.00;-18700.34;5077221;28;20039;-76
2023/07/20 10:49:07;;;;;;;1.10;0.50;;;;;;;25.27;45.76;-18704.66;5085578;28;20059;-75
2023/07/20 10:51:44;;;;;;;1.67;0.60;;;;;;;25.34;43.82;-18706.56;5083939;28;20130;-76
2023/07/20 10:54:29;;;;;;;1.77;0.40;;;;;;;25.40;43.45;-18708.19;5083089;28;20086;-77
2023/07/20 10:57:33;;;;;;;0.70;0.35;;;;;;;25.51;43.45;-18711.03;5069636;28;20097;-76
2023/07/20 11:00:13;;;;;;;0.60;0.40;;;;;;;25.09;41.39;-18700.06;5074728;28;20136;-76
2023/07/20 11:02:47;;;;;;;0.77;0.50;;;;;;;25.10;40.66;-18700.34;5073459;28;20043;-76
2023/07/20 11:05:42;;;;;;;1.55;0.43;;;;;;;25.30;39.94;-18705.63;5078355;28;20096;-76
2023/07/20 11:08:11;;;;;;;0.98;0.40;;;;;;;25.24;40.97;-18703.84;5078166;28;20036;-77
2023/07/20 11:10:37;;;;;;;0.98;0.55;;;;;;;25.58;40.40;-18712.94;5085988;28;20056;-75
2023/07/20 11:13:19;;;;;;;1.83;0.60;;;;;;;25.37;39.50;-18707.38;5084910;28;20329;-74
2023/07/20 11:16:05;;;;;;;1.48;0.50;;;;;;;25.41;42.02;-18708.47;5067372;28;20044;-77